Time;durP1;ratioP1;P1;durP2;ratioP2;P2;SDS_P1;SDS_P2;PMS_P1;PMS_P2;Temp;Humidity;BMP_temperature;BMP_pressure;BME280_temperature;BME280_humidity;BME280_pressure;Samples;Min_cycle;Max_cycle;Signal;HPM_P1;HPM_P2
2023/03/29 00:02:28;;;;;;;2.17;0.70;;;;;;;5.29;56.89;101153.66;5009670;28;20045;-80
2023/03/29 00:05:00;;;;;;;2.85;1.77;;;;;;;5.29;56.72;101160.56;4988324;28;20145;-84
2023/03/29 00:07:28;;;;;;;6.13;1.27;;;;;;;5.27;56.86;101150.13;5004857;28;20080;-77
2023/03/29 00:09:55;;;;;;;3.97;0.90;;;;;;;5.28;56.98;101146.69;4976569;28;20038;-84
2023/03/29 00:12:22;;;;;;;3.00;1.58;;;;;;;5.28;56.85;101138.06;5003277;28;20065;-89
2023/03/29 00:14:48;;;;;;;1.15;0.82;;;;;;;5.28;56.77;101135.47;5011867;28;20077;-79
2023/03/29 00:17:16;;;;;;;7.50;1.92;;;;;;;5.29;56.89;101135.47;5008560;28;20045;-77
2023/03/29 00:19:44;;;;;;;5.35;1.63;;;;;;;5.29;56.84;101134.59;5003629;28;20133;-78
2023/03/29 00:22:12;;;;;;;3.88;1.05;;;;;;;5.30;57.15;101133.75;4992867;28;20068;-78
2023/03/29 00:24:38;;;;;;;2.17;1.00;;;;;;;5.29;56.98;101129.41;5011583;28;20088;-77
2023/03/29 00:27:05;;;;;;;5.70;1.00;;;;;;;5.26;57.09;101129.34;5007173;28;20389;-78
2023/03/29 00:29:32;;;;;;;2.40;0.98;;;;;;;5.24;57.38;101131.91;5005105;28;20042;-81
2023/03/29 00:31:59;;;;;;;3.67;0.98;;;;;;;5.24;57.39;101125.81;4993921;28;20042;-83
2023/03/29 00:34:29;;;;;;;3.97;1.30;;;;;;;5.23;57.85;101129.28;5004992;28;20057;-80
2023/03/29 00:36:56;;;;;;;8.90;1.40;;;;;;;5.22;57.53;101118.00;5001861;28;20061;-83
2023/03/29 00:39:25;;;;;;;3.28;1.02;;;;;;;5.23;57.79;101124.09;4994745;28;20654;-82
2023/03/29 00:41:51;;;;;;;0.80;0.80;;;;;;;5.21;57.83;101116.25;5011888;28;20593;-80
2023/03/29 00:44:56;;;;;;;1.98;1.17;;;;;;;5.20;58.11;101105.84;5001098;28;20046;-78
2023/03/29 00:47:40;;;;;;;1.85;0.85;;;;;;;5.20;58.29;101117.13;5005591;28;20053;-78
2023/03/29 00:50:29;;;;;;;5.60;1.30;;;;;;;5.22;58.29;101107.63;4997052;28;20050;-79
2023/03/29 00:53:21;;;;;;;4.30;1.30;;;;;;;5.24;58.33;101107.66;5005686;28;20034;-80
2023/03/29 00:56:12;;;;;;;6.00;1.50;;;;;;;5.26;57.97;101098.19;5007672;28;20042;-80
2023/03/29 00:59:07;;;;;;;2.92;1.52;;;;;;;5.26;58.44;101099.06;5005891;28;20048;-78
2023/03/29 01:01:46;;;;;;;4.10;1.25;;;;;;;5.27;58.67;101090.44;5010955;28;20568;-78
2023/03/29 01:04:41;;;;;;;1.83;0.93;;;;;;;5.27;58.57;101090.44;5004748;28;20050;-79
2023/03/29 01:07:39;;;;;;;5.68;1.05;;;;;;;5.23;58.38;101083.44;4991044;28;20053;-77
2023/03/29 01:10:15;;;;;;;1.13;1.08;;;;;;;5.23;58.55;101086.03;5006273;28;20053;-89
2023/03/29 01:12:50;;;;;;;3.22;1.15;;;;;;;5.19;58.84;101075.53;4990051;28;20068;-77
2023/03/29 01:15:23;;;;;;;2.20;1.17;;;;;;;5.17;59.10;101070.34;4996440;28;20034;-79
2023/03/29 01:17:52;;;;;;;1.52;1.20;;;;;;;5.16;59.12;101067.72;4997632;28;20480;-79
2023/03/29 01:20:42;;;;;;;2.83;0.77;;;;;;;5.12;59.48;101061.56;5005937;28;20042;-80
2023/03/29 01:23:44;;;;;;;2.00;1.27;;;;;;;5.08;59.91;101054.59;5002156;28;20066;-77
2023/03/29 01:26:47;;;;;;;3.17;1.15;;;;;;;5.04;60.31;101048.44;5004772;28;20045;-78
2023/03/29 01:29:25;;;;;;;3.40;1.20;;;;;;;4.99;60.79;101052.66;5006689;28;20050;-77
2023/03/29 01:31:59;;;;;;;3.70;1.65;;;;;;;4.99;61.16;101051.81;4986612;28;20046;-79
2023/03/29 01:34:42;;;;;;;3.10;1.73;;;;;;;4.95;62.42;101053.44;5000022;28;20504;-83
2023/03/29 01:37:27;;;;;;;1.50;1.40;;;;;;;4.93;62.71;101049.97;4988554;28;20046;-77
2023/03/29 01:39:54;;;;;;;4.03;1.15;;;;;;;4.93;63.05;101049.97;5007097;28;20469;-80
2023/03/29 01:42:38;;;;;;;2.75;1.73;;;;;;;4.92;63.78;101050.81;5006912;28;20058;-79
2023/03/29 01:45:24;;;;;;;2.22;1.50;;;;;;;4.90;64.15;101045.59;5006188;28;20528;-79
2023/03/29 01:48:02;;;;;;;4.47;1.50;;;;;;;4.87;64.43;101049.84;5007011;28;20064;-78
2023/03/29 01:50:51;;;;;;;3.83;1.65;;;;;;;4.85;66.19;101044.63;5006818;28;20049;-77
2023/03/29 01:53:56;;;;;;;4.10;1.50;;;;;;;4.83;66.79;101056.66;5005420;28;20029;-77
2023/03/29 01:56:27;;;;;;;4.82;2.10;;;;;;;4.78;67.61;101046.22;5006954;28;20054;-79
2023/03/29 01:59:03;;;;;;;4.13;2.05;;;;;;;4.74;68.46;101049.56;5017039;28;20361;-78
2023/03/29 02:01:38;;;;;;;2.33;1.75;;;;;;;4.74;68.50;101040.91;5004774;28;20045;-78
2023/03/29 02:04:11;;;;;;;5.35;1.80;;;;;;;4.74;68.54;101038.31;5003945;28;20049;-79
2023/03/29 02:06:43;;;;;;;3.67;1.95;;;;;;;4.75;70.21;101034.91;5005393;28;20042;-79
2023/03/29 02:09:10;;;;;;;2.78;1.70;;;;;;;4.76;70.46;101034.06;5007223;28;20041;-85
2023/03/29 02:11:37;;;;;;;1.65;1.55;;;;;;;4.75;71.02;101027.13;5007345;28;20089;-79
2023/03/29 02:14:04;;;;;;;4.22;2.50;;;;;;;4.73;71.35;101023.59;4994935;28;20050;-80
2023/03/29 02:16:36;;;;;;;7.70;2.15;;;;;;;4.72;72.72;101024.44;5010126;28;20532;-79
2023/03/29 02:19:03;;;;;;;5.22;2.22;;;;;;;4.71;74.85;101013.19;5009474;28;20057;-80
2023/03/29 02:22:02;;;;;;;5.35;2.03;;;;;;;4.71;75.15;101009.75;4995616;28;20125;-80
2023/03/29 02:24:32;;;;;;;5.20;2.15;;;;;;;4.68;76.28;101015.75;5003016;28;20080;-77
2023/03/29 02:27:00;;;;;;;3.03;2.35;;;;;;;4.69;76.58;101012.28;5010031;28;20050;-78
2023/03/29 02:29:26;;;;;;;2.50;2.30;;;;;;;4.69;77.69;101009.69;5020910;28;20066;-89
2023/03/29 02:32:13;;;;;;;5.72;2.10;;;;;;;4.72;77.43;101007.19;5021112;28;20054;-79
2023/03/29 02:34:55;;;;;;;3.70;1.90;;;;;;;4.72;77.86;101006.28;5007148;28;20046;-79
2023/03/29 02:37:25;;;;;;;4.63;2.78;;;;;;;4.69;77.75;100998.44;5008553;28;20043;-80
2023/03/29 02:39:53;;;;;;;5.25;1.92;;;;;;;4.67;78.12;101005.31;4986142;28;20048;-78
2023/03/29 02:42:21;;;;;;;3.78;2.20;;;;;;;4.69;78.36;101007.09;5009145;28;20073;-80
2023/03/29 02:44:52;;;;;;;2.33;1.50;;;;;;;4.67;78.01;100995.81;5011540;28;20746;-78
2023/03/29 02:47:30;;;;;;;2.88;1.58;;;;;;;4.64;77.64;100993.16;4995667;28;20041;-84
2023/03/29 02:49:58;;;;;;;3.80;1.60;;;;;;;4.58;78.02;100990.47;4986872;28;20050;-77
2023/03/29 02:52:32;;;;;;;2.38;2.15;;;;;;;4.52;78.52;100995.50;5007318;28;20053;-81
2023/03/29 02:55:01;;;;;;;1.80;1.63;;;;;;;4.45;79.31;100991.91;4987428;28;20460;-80
2023/03/29 02:57:31;;;;;;;1.85;1.13;;;;;;;4.41;79.34;100984.91;5021354;28;20072;-78
2023/03/29 02:59:58;;;;;;;4.68;2.10;;;;;;;4.40;80.75;100988.34;4987574;28;20447;-78
2023/03/29 03:02:28;;;;;;;7.93;2.35;;;;;;;4.40;80.54;100981.44;5003699;28;20407;-84
2023/03/29 03:04:55;;;;;;;2.05;1.85;;;;;;;4.45;80.95;100984.13;5003836;28;20046;-83
2023/03/29 03:07:21;;;;;;;3.13;2.15;;;;;;;4.46;81.07;100978.97;5001804;28;20060;-77
2023/03/29 03:09:48;;;;;;;4.45;2.08;;;;;;;4.49;81.36;100978.16;5010842;28;20056;-79
2023/03/29 03:12:14;;;;;;;4.70;1.77;;;;;;;4.50;81.83;100974.75;5007660;28;20046;-87
2023/03/29 03:14:41;;;;;;;4.82;2.30;;;;;;;4.52;82.00;100972.16;5002620;28;20092;-77
2023/03/29 03:17:08;;;;;;;1.88;1.73;;;;;;;4.50;82.38;100971.25;4991406;28;20064;-82
2023/03/29 03:19:35;;;;;;;3.80;2.63;;;;;;;4.46;82.75;100965.16;4994077;28;20486;-78
2023/03/29 03:22:02;;;;;;;4.70;2.28;;;;;;;4.42;82.96;100953.84;5006285;28;20038;-76
2023/03/29 03:24:31;;;;;;;12.15;2.63;;;;;;;4.41;83.71;100948.63;4991694;28;20050;-79
2023/03/29 03:26:58;;;;;;;3.83;2.38;;;;;;;4.40;83.90;100945.13;4999675;28;20152;-77
2023/03/29 03:29:29;;;;;;;3.88;2.25;;;;;;;4.44;84.92;100944.34;5010204;28;20085;-79
2023/03/29 03:31:57;;;;;;;5.20;1.90;;;;;;;4.44;84.08;100941.75;5009076;28;20049;-78
2023/03/29 03:34:25;;;;;;;5.88;2.65;;;;;;;4.46;84.97;100941.81;5006200;28;20096;-77
2023/03/29 03:36:54;;;;;;;4.25;2.38;;;;;;;4.45;85.08;100938.34;4995116;28;20038;-78
2023/03/29 03:39:23;;;;;;;4.47;1.80;;;;;;;4.44;84.67;100936.56;5009744;28;20050;-80
2023/03/29 03:41:50;;;;;;;3.47;2.97;;;;;;;4.46;85.91;100936.63;4993186;28;20054;-77
2023/03/29 03:44:16;;;;;;;3.38;2.47;;;;;;;4.44;85.61;100928.81;5012922;28;20503;-83
2023/03/29 03:46:43;;;;;;;3.03;2.22;;;;;;;4.43;86.04;100933.97;5010749;28;20076;-83
2023/03/29 03:49:09;;;;;;;4.25;2.95;;;;;;;4.44;86.04;100925.34;5006813;28;20384;-76
2023/03/29 03:51:36;;;;;;;5.85;2.83;;;;;;;4.44;86.78;100912.38;4989497;28;20065;-77
2023/03/29 03:54:03;;;;;;;2.53;2.20;;;;;;;4.44;86.87;100913.25;5006035;28;20054;-80
2023/03/29 03:56:30;;;;;;;5.75;2.78;;;;;;;4.35;87.33;100915.66;5010046;28;20037;-79
2023/03/29 03:58:58;;;;;;;2.97;2.65;;;;;;;4.31;87.47;100911.25;5012149;28;20046;-79
2023/03/29 04:01:26;;;;;;;5.38;3.53;;;;;;;4.24;87.85;100897.31;5013702;28;20073;-79
2023/03/29 04:03:52;;;;;;;7.13;2.60;;;;;;;4.20;87.85;100905.84;5016479;28;20029;-80
2023/03/29 04:06:19;;;;;;;4.22;2.95;;;;;;;4.17;88.77;100916.13;5011720;28;20048;-78
2023/03/29 04:08:46;;;;;;;3.88;2.30;;;;;;;4.20;89.55;100920.50;5011670;28;20050;-79
2023/03/29 04:11:26;;;;;;;4.38;2.60;;;;;;;4.20;89.89;100910.16;5007147;28;20042;-79
2023/03/29 04:13:56;;;;;;;2.95;2.63;;;;;;;4.20;90.75;100907.56;4987849;28;20039;-80
2023/03/29 04:16:26;;;;;;;4.85;3.03;;;;;;;4.21;91.63;100899.84;5002005;28;20491;-82
2023/03/29 04:18:56;;;;;;;5.40;2.80;;;;;;;4.23;92.12;100897.28;5009387;28;20046;-78
2023/03/29 04:21:26;;;;;;;6.43;2.88;;;;;;;4.19;92.35;100898.91;4999884;28;20042;-81
2023/03/29 04:23:56;;;;;;;3.83;3.42;;;;;;;4.21;93.76;100901.53;5010585;28;20045;-84
2023/03/29 04:26:27;;;;;;;5.07;3.53;;;;;;;4.19;94.73;100900.66;4996063;28;20168;-78
2023/03/29 04:28:53;;;;;;;11.10;4.18;;;;;;;4.17;95.27;100907.50;4995234;28;20460;-77
2023/03/29 04:31:20;;;;;;;11.73;3.20;;;;;;;4.15;95.08;100897.09;5008990;28;20046;-78
2023/03/29 04:33:47;;;;;;;4.72;3.05;;;;;;;4.12;94.47;100900.50;4994217;28;20129;-77
2023/03/29 04:36:14;;;;;;;10.75;3.55;;;;;;;4.13;95.75;100901.38;4992694;28;20046;-78
2023/03/29 04:38:42;;;;;;;5.32;3.10;;;;;;;4.11;95.71;100901.34;5001583;28;20042;-77
2023/03/29 04:41:18;;;;;;;;;;;;;;;;;;;;;
2023/03/29 04:43:46;;;;;;;6.88;3.15;;;;;;;4.11;97.15;100901.34;5015797;28;20054;-77
2023/03/29 04:46:16;;;;;;;6.13;3.60;;;;;;;4.16;96.72;100895.38;5011128;28;20038;-78
2023/03/29 04:48:46;;;;;;;7.47;3.95;;;;;;;4.20;96.60;100905.84;5013305;28;20069;-77
2023/03/29 04:51:16;;;;;;;5.72;3.40;;;;;;;4.21;95.94;100902.44;4996784;28;20554;-78
2023/03/29 04:53:46;;;;;;;6.43;3.55;;;;;;;4.22;96.31;100900.69;5004928;28;20037;-81
2023/03/29 04:56:16;;;;;;;6.65;3.45;;;;;;;4.22;96.14;100895.50;5009079;28;20042;-77
2023/03/29 04:58:45;;;;;;;5.15;4.30;;;;;;;4.23;96.80;100895.53;5002150;28;20129;-79
2023/03/29 05:01:16;;;;;;;5.32;3.53;;;;;;;4.24;96.66;100893.84;5007753;28;20045;-78
2023/03/29 05:03:46;;;;;;;4.80;4.20;;;;;;;4.21;96.67;100897.25;5006421;28;20042;-79
2023/03/29 05:06:16;;;;;;;7.95;4.35;;;;;;;4.21;97.38;100888.56;5003652;28;20500;-79
2023/03/29 05:08:43;;;;;;;7.75;4.43;;;;;;;4.23;96.67;100886.91;5016218;28;20573;-77
2023/03/29 05:11:12;;;;;;;8.90;4.47;;;;;;;4.25;96.76;100886.09;5005011;28;20038;-78
2023/03/29 05:13:39;;;;;;;6.53;4.50;;;;;;;4.24;96.81;100884.34;5020678;28;20057;-81
2023/03/29 05:16:06;;;;;;;6.13;4.45;;;;;;;4.20;97.30;100877.34;5013551;28;20054;-85
2023/03/29 05:18:33;;;;;;;7.18;4.53;;;;;;;4.21;97.36;100876.50;4999700;28;20125;-80
2023/03/29 05:21:00;;;;;;;8.20;4.30;;;;;;;4.22;96.69;100870.47;4993072;28;20058;-77
2023/03/29 05:23:27;;;;;;;5.72;4.45;;;;;;;4.21;96.86;100863.56;4993317;28;20396;-79
2023/03/29 05:25:54;;;;;;;8.75;4.57;;;;;;;4.21;96.95;100868.75;4995104;28;20088;-77
2023/03/29 05:28:21;;;;;;;5.93;5.22;;;;;;;4.25;97.68;100865.38;4988992;28;20053;-80
2023/03/29 05:30:59;;;;;;;6.22;5.63;;;;;;;4.29;97.01;100858.53;5008980;28;20511;-80
2023/03/29 05:33:29;;;;;;;6.93;4.53;;;;;;;4.32;97.05;100856.00;4996711;28;20049;-82
2023/03/29 05:36:12;;;;;;;9.52;5.28;;;;;;;4.35;96.36;100850.00;5006863;28;20423;-82
2023/03/29 05:38:39;;;;;;;3.83;3.50;;;;;;;4.39;96.05;100849.22;5005805;28;20485;-80
2023/03/29 05:41:06;;;;;;;11.15;5.47;;;;;;;4.42;96.15;100842.38;5010339;28;20126;-80
2023/03/29 05:43:33;;;;;;;10.82;5.05;;;;;;;4.43;95.71;100841.53;5009208;28;20065;-84
2023/03/29 05:46:00;;;;;;;7.80;6.28;;;;;;;4.40;96.10;100845.78;5010413;28;20061;-80
2023/03/29 05:48:27;;;;;;;8.82;4.75;;;;;;;4.39;96.07;100844.88;5010872;28;20061;-83
2023/03/29 05:50:56;;;;;;;6.57;4.95;;;;;;;4.43;96.23;100845.81;5019536;28;20133;-78
2023/03/29 05:53:25;;;;;;;7.60;4.60;;;;;;;4.48;96.11;100851.97;5014343;28;20060;-82
2023/03/29 05:55:51;;;;;;;8.75;4.60;;;;;;;4.50;95.91;100841.63;5009859;28;20037;-77
2023/03/29 05:58:19;;;;;;;6.25;4.93;;;;;;;4.50;95.41;100836.44;4996077;28;20635;-80
2023/03/29 06:00:48;;;;;;;6.70;4.10;;;;;;;4.53;95.65;100839.97;5019505;28;20512;-78
2023/03/29 06:03:23;;;;;;;6.07;4.50;;;;;;;4.53;95.88;100833.94;5007633;28;20564;-78
2023/03/29 06:05:59;;;;;;;9.52;4.88;;;;;;;4.51;95.62;100841.69;4996994;28;20042;-79
2023/03/29 06:08:27;;;;;;;5.97;4.40;;;;;;;4.57;95.74;100839.19;5006453;28;20110;-79
2023/03/29 06:11:09;;;;;;;5.40;4.65;;;;;;;4.66;95.08;100837.63;5008826;28;20496;-81
2023/03/29 06:13:37;;;;;;;5.13;4.10;;;;;;;4.70;94.80;100839.41;5020583;28;20492;-78
2023/03/29 06:16:05;;;;;;;6.43;4.28;;;;;;;4.71;94.30;100838.59;5007484;28;20424;-78
2023/03/29 06:18:33;;;;;;;8.30;4.70;;;;;;;4.70;94.74;100832.50;5013347;28;20477;-78
2023/03/29 06:21:01;;;;;;;5.80;4.20;;;;;;;4.74;94.89;100841.22;4996508;28;20053;-79
2023/03/29 06:23:28;;;;;;;7.80;5.32;;;;;;;4.71;94.44;100846.38;4997043;28;20755;-80
2023/03/29 06:25:55;;;;;;;6.20;5.00;;;;;;;4.72;94.64;100842.91;5011145;28;20100;-76
2023/03/29 06:28:22;;;;;;;8.65;4.97;;;;;;;4.77;94.50;100852.53;5010779;28;20045;-79
2023/03/29 06:30:49;;;;;;;5.38;4.13;;;;;;;4.82;94.01;100847.41;5005301;28;20046;-77
2023/03/29 06:33:17;;;;;;;8.27;4.88;;;;;;;4.88;93.91;100854.44;5013029;28;20125;-84
2023/03/29 06:35:47;;;;;;;4.93;3.65;;;;;;;5.00;93.68;100852.03;5001499;28;20061;-83
2023/03/29 06:38:14;;;;;;;5.57;4.85;;;;;;;5.21;92.37;100855.84;5006272;28;20042;-77
2023/03/29 06:40:42;;;;;;;9.43;4.65;;;;;;;5.32;91.63;100851.72;4997193;28;20141;-78
2023/03/29 06:43:09;;;;;;;8.73;5.22;;;;;;;5.49;90.87;100851.09;5008349;28;20148;-80
2023/03/29 06:45:37;;;;;;;6.95;3.85;;;;;;;5.66;90.02;100839.25;5012282;28;20045;-79
2023/03/29 06:48:06;;;;;;;10.23;4.47;;;;;;;5.88;88.63;100845.59;4988004;28;20043;-78
2023/03/29 06:50:34;;;;;;;7.25;5.00;;;;;;;6.11;87.00;100842.44;5006882;28;20037;-86
2023/03/29 06:53:00;;;;;;;7.53;4.10;;;;;;;6.33;86.00;100837.50;5009160;28;20128;-80
2023/03/29 06:55:27;;;;;;;6.38;3.85;;;;;;;6.51;83.41;100842.91;4997747;28;20043;-80
2023/03/29 06:57:54;;;;;;;8.63;3.88;;;;;;;6.65;83.27;100843.06;5006658;28;20128;-77
2023/03/29 07:00:26;;;;;;;4.80;3.90;;;;;;;6.77;81.91;100847.53;5004516;28;20393;-78
2023/03/29 07:02:59;;;;;;;6.55;2.78;;;;;;;6.88;81.24;100848.50;5009840;28;20069;-77
2023/03/29 07:05:27;;;;;;;5.63;3.97;;;;;;;6.91;80.43;100845.03;5003225;28;20451;-77
2023/03/29 07:07:55;;;;;;;5.05;4.05;;;;;;;6.91;80.38;100850.22;5006715;28;20054;-79
2023/03/29 07:10:26;;;;;;;7.68;3.95;;;;;;;6.85;79.99;100848.44;5008198;28;20049;-82
2023/03/29 07:12:54;;;;;;;5.53;3.78;;;;;;;6.76;80.02;100843.16;5010116;28;20578;-82
2023/03/29 07:15:21;;;;;;;5.57;3.55;;;;;;;6.76;80.79;100830.16;4996261;28;20050;-80
2023/03/29 07:17:49;;;;;;;6.13;3.88;;;;;;;6.80;80.48;100839.72;5006997;28;20046;-77
2023/03/29 07:20:18;;;;;;;6.32;4.10;;;;;;;6.87;80.00;100844.16;5010144;28;20492;-85
2023/03/29 07:22:45;;;;;;;6.45;3.90;;;;;;;6.89;80.07;100839.81;5008123;28;20129;-79
2023/03/29 07:25:15;;;;;;;8.27;4.18;;;;;;;6.88;79.52;100839.81;5011338;28;20042;-78
2023/03/29 07:27:42;;;;;;;5.50;3.63;;;;;;;6.89;79.99;100831.16;5010342;28;20057;-82
2023/03/29 07:30:12;;;;;;;5.07;3.33;;;;;;;6.96;79.54;100835.53;4988068;28;20477;-81
2023/03/29 07:32:40;;;;;;;15.18;3.88;;;;;;;6.93;79.08;100832.91;5009727;28;20041;-80
2023/03/29 07:35:08;;;;;;;15.63;4.70;;;;;;;6.98;79.28;100836.44;5005293;28;20497;-79
2023/03/29 07:37:36;;;;;;;17.33;4.78;;;;;;;7.07;78.30;100840.84;5006390;28;20034;-86
2023/03/29 07:40:11;;;;;;;10.90;4.57;;;;;;;7.09;78.17;100834.78;5004075;28;20054;-80
2023/03/29 07:42:38;;;;;;;5.53;3.95;;;;;;;7.14;77.70;100839.16;5009987;28;20038;-84
2023/03/29 07:45:07;;;;;;;25.75;5.72;;;;;;;7.09;77.93;100842.59;5011263;28;20049;-77
2023/03/29 07:47:33;;;;;;;28.23;5.55;;;;;;;7.10;78.17;100854.78;5003240;28;20056;-84
2023/03/29 07:50:02;;;;;;;16.58;4.72;;;;;;;7.14;78.14;100850.44;5010876;28;20050;-80
2023/03/29 07:52:29;;;;;;;7.82;3.50;;;;;;;7.18;78.02;100853.94;5006443;28;20046;-79
2023/03/29 07:54:58;;;;;;;17.63;4.70;;;;;;;7.25;77.10;100853.16;5008054;28;20666;-84
2023/03/29 07:57:26;;;;;;;17.08;5.25;;;;;;;7.26;77.51;100853.16;4995366;28;20720;-85
2023/03/29 07:59:53;;;;;;;15.98;4.20;;;;;;;7.35;77.32;100861.88;5010967;28;20392;-81
2023/03/29 08:02:21;;;;;;;7.38;4.18;;;;;;;7.40;76.64;100847.16;5011615;28;20132;-79
2023/03/29 08:04:48;;;;;;;5.75;3.35;;;;;;;7.40;76.02;100863.66;5012524;28;20052;-76
2023/03/29 08:07:17;;;;;;;4.90;3.00;;;;;;;7.35;75.34;100856.69;5004011;28;20060;-79
2023/03/29 08:09:44;;;;;;;4.40;3.53;;;;;;;7.25;75.71;100855.75;5012626;28;20058;-78
2023/03/29 08:12:11;;;;;;;10.25;4.70;;;;;;;7.16;76.57;100851.34;5003739;28;20141;-77
2023/03/29 08:14:37;;;;;;;13.60;3.72;;;;;;;7.24;76.46;100848.78;5015516;28;20037;-83
2023/03/29 08:17:04;;;;;;;6.15;3.33;;;;;;;7.36;76.00;100850.63;5005466;28;20046;-79
2023/03/29 08:19:31;;;;;;;16.92;4.50;;;;;;;7.45;75.52;100838.50;4992468;28;20173;-77
2023/03/29 08:21:57;;;;;;;4.85;3.22;;;;;;;7.46;75.02;100842.00;5010498;28;20046;-80
2023/03/29 08:24:24;;;;;;;11.32;4.10;;;;;;;7.58;75.14;100846.44;5009523;28;20053;-78
2023/03/29 08:26:50;;;;;;;8.18;3.42;;;;;;;7.57;74.36;100839.47;5007267;28;20042;-79
2023/03/29 08:29:17;;;;;;;14.02;3.72;;;;;;;7.69;74.17;100844.78;4993937;28;20054;-79
2023/03/29 08:31:44;;;;;;;8.18;3.00;;;;;;;7.84;74.00;100845.72;4999168;28;20038;-83
2023/03/29 08:34:10;;;;;;;5.43;3.58;;;;;;;7.92;73.03;100847.47;4991573;28;20063;-78
2023/03/29 08:36:37;;;;;;;6.03;3.38;;;;;;;8.00;72.74;100849.25;4983804;28;20137;-80
2023/03/29 08:39:04;;;;;;;5.32;3.25;;;;;;;8.05;72.79;100839.72;4998606;28;20488;-78
2023/03/29 08:41:56;;;;;;;9.85;3.40;;;;;;;7.97;72.48;100836.22;5015131;28;20030;-79
2023/03/29 08:45:00;;;;;;;6.18;3.80;;;;;;;7.93;72.56;100836.19;5003220;28;20068;-83
2023/03/29 08:47:51;;;;;;;11.82;3.92;;;;;;;8.05;72.70;100837.13;5009611;28;20484;-79
2023/03/29 08:50:20;;;;;;;12.50;3.80;;;;;;;8.25;72.19;100834.59;5022961;28;20041;-78
2023/03/29 08:52:58;;;;;;;7.53;3.20;;;;;;;8.36;71.58;100835.50;5019235;28;20372;-80
2023/03/29 08:55:33;;;;;;;8.98;4.65;;;;;;;8.41;71.32;100838.13;5003603;28;20355;-81
2023/03/29 08:58:02;;;;;;;5.10;3.92;;;;;;;8.41;70.76;100825.09;5016546;28;20045;-79
2023/03/29 09:00:36;;;;;;;5.07;3.15;;;;;;;8.39;70.80;100827.66;4995303;28;20420;-78
2023/03/29 09:03:03;;;;;;;;;;;;;;;8.37;70.54;100828.53;5018288;28;20135;-79
2023/03/29 09:05:35;;;;;;;6.18;3.28;;;;;;;8.22;70.68;100829.38;5021638;28;20371;-91
2023/03/29 09:08:01;;;;;;;3.42;2.67;;;;;;;8.22;71.33;100830.22;5027392;28;20114;-85
2023/03/29 09:10:42;;;;;;;8.75;3.47;;;;;;;8.39;71.04;100824.19;5016488;28;20042;-77
2023/03/29 09:13:29;;;;;;;14.23;4.00;;;;;;;8.51;69.98;100826.00;5016133;28;20050;-78
2023/03/29 09:16:28;;;;;;;8.30;4.05;;;;;;;8.49;70.41;100831.22;5000170;28;20053;-79
2023/03/29 09:19:19;;;;;;;5.57;3.33;;;;;;;8.43;70.70;100837.28;5017420;28;20496;-83
2023/03/29 09:22:10;;;;;;;4.68;2.88;;;;;;;8.51;70.51;100834.69;5010487;28;20129;-82
2023/03/29 09:25:23;;;;;;;7.90;3.00;;;;;;;8.57;70.13;100831.25;4995043;28;20045;-80
2023/03/29 09:28:05;;;;;;;9.20;4.40;;;;;;;8.50;70.40;100832.09;4995259;28;20038;-83
2023/03/29 09:30:43;;;;;;;4.38;3.63;;;;;;;8.38;71.13;100831.16;4997623;28;20099;-78
2023/03/29 09:33:15;;;;;;;3.50;2.92;;;;;;;8.40;71.62;100824.19;5012300;28;20041;-78
2023/03/29 09:35:51;;;;;;;6.63;3.67;;;;;;;8.39;71.74;100826.81;5014654;28;20130;-78
2023/03/29 09:38:18;;;;;;;8.68;3.20;;;;;;;8.34;72.65;100825.94;5013878;28;20042;-80
2023/03/29 09:40:51;;;;;;;4.10;2.88;;;;;;;8.36;73.05;100826.81;5017443;28;20050;-79
2023/03/29 09:43:30;;;;;;;7.65;3.25;;;;;;;8.30;73.73;100822.44;5016795;28;20060;-79
2023/03/29 09:46:03;;;;;;;5.75;3.30;;;;;;;8.15;74.96;100833.69;4999576;28;20042;-79
2023/03/29 09:48:36;;;;;;;3.83;3.42;;;;;;;8.16;76.13;100826.72;5018512;28;20037;-80
2023/03/29 09:51:05;;;;;;;6.75;4.22;;;;;;;8.09;76.58;100826.69;5015390;28;20049;-77
2023/03/29 09:53:31;;;;;;;4.35;2.75;;;;;;;8.08;76.80;100821.47;5015951;28;20042;-79
2023/03/29 09:56:00;;;;;;;4.60;3.08;;;;;;;8.11;77.19;100821.50;4999891;28;20532;-78
2023/03/29 09:58:31;;;;;;;3.58;3.22;;;;;;;8.15;77.29;100819.75;5013096;28;20066;-79
2023/03/29 10:01:01;;;;;;;5.72;3.25;;;;;;;8.21;77.26;100806.75;5010410;28;20061;-79
2023/03/29 10:03:30;;;;;;;4.22;3.38;;;;;;;8.18;78.02;100810.22;5013026;28;20056;-80
2023/03/29 10:06:00;;;;;;;5.32;3.40;;;;;;;8.18;78.18;100806.75;4996795;28;20049;-81
2023/03/29 10:08:28;;;;;;;4.45;3.30;;;;;;;8.22;78.22;100811.13;5012186;28;20046;-78
2023/03/29 10:10:58;;;;;;;3.75;2.80;;;;;;;8.32;77.95;100801.56;5018673;28;20066;-79
2023/03/29 10:13:37;;;;;;;4.75;2.97;;;;;;;8.43;78.25;100797.25;5005310;28;20048;-79
2023/03/29 10:16:08;;;;;;;5.22;2.88;;;;;;;8.45;78.51;100803.34;5005882;28;20447;-82
2023/03/29 10:18:41;;;;;;;12.38;3.00;;;;;;;8.44;78.49;100804.22;5006788;28;20072;-81
2023/03/29 10:21:14;;;;;;;7.15;3.40;;;;;;;8.34;79.49;100800.69;5009659;28;20053;-79
2023/03/29 10:23:41;;;;;;;4.47;2.70;;;;;;;8.39;80.23;100803.34;5014089;28;20054;-79
2023/03/29 10:26:35;;;;;;;3.30;2.95;;;;;;;8.42;80.17;100803.34;5008867;28;20110;-78
2023/03/29 10:29:05;;;;;;;9.40;3.90;;;;;;;8.50;81.24;100819.94;4993913;28;20081;-78
2023/03/29 10:31:36;;;;;;;8.13;3.65;;;;;;;8.58;81.40;100817.34;5006603;28;20037;-80
2023/03/29 10:34:06;;;;;;;2.47;2.28;;;;;;;8.64;81.62;100813.84;5015749;28;20170;-79
2023/03/29 10:36:33;;;;;;;2.95;2.75;;;;;;;8.74;81.44;100810.38;5013223;28;20145;-78
2023/03/29 10:39:02;;;;;;;5.95;2.97;;;;;;;8.96;80.94;100799.94;4995017;28;20057;-78
2023/03/29 10:41:29;;;;;;;5.60;4.53;;;;;;;9.17;79.47;100806.94;5028653;28;20034;-80
2023/03/29 10:43:59;;;;;;;3.97;2.65;;;;;;;9.30;78.96;100797.34;5018279;28;20045;-78
2023/03/29 10:46:42;;;;;;;3.13;2.75;;;;;;;9.46;78.20;100787.72;4998399;28;20041;-79
2023/03/29 10:49:20;;;;;;;5.13;2.95;;;;;;;9.66;77.06;100787.66;5012216;28;20108;-81
2023/03/29 10:52:00;;;;;;;4.32;3.00;;;;;;;9.93;76.23;100789.31;5016789;28;20052;-78
2023/03/29 10:54:33;;;;;;;3.17;2.95;;;;;;;10.18;75.30;100786.56;5008530;28;20061;-79
2023/03/29 10:57:45;;;;;;;4.75;2.53;;;;;;;10.44;73.86;100778.59;5034324;28;20089;-78
2023/03/29 11:00:52;;;;;;;5.78;2.78;;;;;;;10.50;73.62;100770.72;5022958;28;20045;-82
2023/03/29 11:03:24;;;;;;;8.63;3.03;;;;;;;10.48;73.80;100763.75;5014525;28;20045;-77
2023/03/29 11:06:36;;;;;;;3.72;2.72;;;;;;;10.50;73.29;100768.09;5001278;28;20431;-79
2023/03/29 11:09:23;;;;;;;7.30;2.80;;;;;;;10.74;73.47;100771.41;4986637;28;20053;-77
2023/03/29 11:12:09;;;;;;;14.02;4.38;;;;;;;10.93;72.25;100756.44;5014959;28;20045;-79
2023/03/29 11:15:12;;;;;;;6.05;4.10;;;;;;;11.18;71.17;100757.06;5020440;28;20048;-82
2023/03/29 11:17:55;;;;;;;6.03;3.45;;;;;;;11.81;69.70;100752.91;5000268;28;20046;-79
2023/03/29 11:21:08;;;;;;;10.50;3.83;;;;;;;12.40;66.75;100752.97;5018434;28;20065;-81
2023/03/29 11:23:42;;;;;;;5.75;3.78;;;;;;;12.56;64.08;100750.13;5020989;28;20038;-78
2023/03/29 11:26:29;;;;;;;5.85;3.38;;;;;;;12.41;63.70;100743.34;5009489;28;20137;-77
2023/03/29 11:29:12;;;;;;;5.07;3.63;;;;;;;12.18;65.01;100751.56;5002644;28;20057;-78
2023/03/29 11:32:01;;;;;;;8.80;4.03;;;;;;;12.46;64.48;100749.38;5010117;28;20046;-80
2023/03/29 11:35:06;;;;;;;12.48;4.32;;;;;;;12.79;63.45;100749.75;5005133;28;20126;-77
2023/03/29 11:37:48;;;;;;;5.05;3.47;;;;;;;12.87;62.28;100752.25;5010298;28;20054;-79
2023/03/29 11:40:30;;;;;;;8.48;4.00;;;;;;;12.70;63.25;100756.03;4998763;28;20097;-78
2023/03/29 11:43:01;;;;;;;7.35;3.60;;;;;;;12.30;63.59;100758.41;5005409;28;20034;-77
2023/03/29 11:45:51;;;;;;;7.72;3.20;;;;;;;12.20;64.32;100758.53;4999132;28;20489;-79
2023/03/29 11:48:26;;;;;;;5.90;3.10;;;;;;;12.18;64.26;100746.31;5015779;28;20112;-79
2023/03/29 11:51:10;;;;;;;8.65;4.82;;;;;;;12.28;63.57;100740.06;4999377;28;20058;-81
2023/03/29 11:54:06;;;;;;;9.07;5.00;;;;;;;13.83;59.11;100727.69;4997780;28;20050;-80
2023/03/29 11:56:42;;;;;;;10.65;4.03;;;;;;;15.42;54.01;100730.00;4996866;28;20050;-78
2023/03/29 11:59:22;;;;;;;9.90;4.22;;;;;;;16.37;51.59;100729.84;5001627;28;20038;-83
2023/03/29 12:01:55;;;;;;;9.25;4.03;;;;;;;17.73;48.19;100731.38;4996789;28;20046;-78
2023/03/29 12:04:41;;;;;;;11.65;4.93;;;;;;;16.76;48.29;100728.56;5002066;28;20104;-77